Terminal Aerodrome Forecast
Issued by NWS Memphis, TN

Home | Current Version | Previous Version | Text Only | Print | Product List | Glossary On
Versions: 1 2 3 4 5 6 7 8 9 10 11 12 13 14 15
289
FTUS44 KMEG 241726
TAFMKL
TAF
KMKL 241726Z 2418/2518 15007KT P6SM SCT250
     FM250400 18010G15KT P6SM FEW250 WS020/21050KT
     FM251000 21010KT P6SM BKN015=

USA.gov is the U.S. government's official web portal to all federal, state and local government web resources and services.